Time;durP1;ratioP1;P1;durP2;ratioP2;P2;SDS_P1;SDS_P2;PMS_P1;PMS_P2;Temp;Humidity;BMP_temperature;BMP_pressure;BME280_temperature;BME280_humidity;BME280_pressure;Samples;Min_cycle;Max_cycle;Signal;HPM_P1;HPM_P2
2023/03/05 00:00:26;;;;;;;13.17;4.47;;;3.60;98.00;;;;;;5051946;28;20838;-68
2023/03/05 00:02:53;;;;;;;8.30;4.20;;;3.70;98.00;;;;;;5051731;28;20464;-68
2023/03/05 00:05:20;;;;;;;9.30;4.30;;;3.70;98.00;;;;;;5052038;28;20834;-68
2023/03/05 00:07:47;;;;;;;6.57;4.17;;;3.70;98.00;;;;;;5051801;28;21031;-68
2023/03/05 00:10:14;;;;;;;11.00;5.10;;;3.60;98.00;;;;;;5034194;28;20468;-68
2023/03/05 00:12:42;;;;;;;8.40;3.77;;;3.60;98.00;;;;;;5051641;28;20460;-68
2023/03/05 00:15:10;;;;;;;9.10;4.97;;;3.60;98.00;;;;;;5051661;28;20469;-68
2023/03/05 00:17:39;;;;;;;14.17;4.40;;;3.60;98.00;;;;;;5051791;28;20951;-68
2023/03/05 00:20:07;;;;;;;5.30;3.00;;;3.60;98.00;;;;;;5052150;28;20525;-68
2023/03/05 00:22:34;;;;;;;12.47;5.13;;;3.70;98.00;;;;;;5051846;28;20929;-68
2023/03/05 00:25:01;;;;;;;15.23;4.10;;;3.60;98.00;;;;;;5051868;28;20456;-68
2023/03/05 00:27:29;;;;;;;12.17;4.27;;;3.60;98.00;;;;;;5051580;28;20560;-68
2023/03/05 00:29:56;;;;;;;11.17;5.10;;;3.50;98.00;;;;;;5052207;28;20541;-68
2023/03/05 00:32:23;;;;;;;9.83;4.20;;;3.40;98.00;;;;;;5051771;28;20887;-68
2023/03/05 00:34:51;;;;;;;6.90;4.17;;;3.40;98.00;;;;;;5034027;28;20942;-68
2023/03/05 00:37:20;;;;;;;9.60;4.20;;;3.40;98.00;;;;;;5051907;28;20453;-67
2023/03/05 00:39:47;;;;;;;9.23;5.27;;;3.40;98.00;;;;;;5051706;28;20462;-68
2023/03/05 00:42:14;;;;;;;17.83;6.10;;;3.40;98.00;;;;;;5051713;28;20461;-68
2023/03/05 00:44:41;;;;;;;7.83;4.40;;;3.40;98.00;;;;;;5051650;28;20985;-67
2023/03/05 00:47:08;;;;;;;6.93;3.53;;;3.40;98.00;;;;;;5051486;28;20486;-68
2023/03/05 00:49:35;;;;;;;8.27;5.00;;;3.40;98.00;;;;;;5051663;28;20456;-68
2023/03/05 00:52:05;;;;;;;7.27;3.73;;;3.50;98.00;;;;;;5051419;28;20465;-67
2023/03/05 00:54:32;;;;;;;7.60;4.60;;;3.60;98.00;;;;;;5051317;28;20463;-68
2023/03/05 00:56:59;;;;;;;8.03;4.27;;;3.60;98.00;;;;;;5051411;28;20476;-67
2023/03/05 00:59:26;;;;;;;5.47;3.33;;;3.60;98.00;;;;;;5053664;28;20502;-67
2023/03/05 01:01:53;;;;;;;11.43;4.50;;;3.70;98.00;;;;;;5054868;28;20452;-67
2023/03/05 01:04:20;;;;;;;6.47;4.23;;;3.90;98.00;;;;;;5055119;28;20456;-68
2023/03/05 01:06:47;;;;;;;12.57;5.40;;;4.00;98.00;;;;;;5054546;28;20461;-67
2023/03/05 01:09:17;;;;;;;13.73;5.30;;;3.90;98.00;;;;;;5054278;28;20525;-68
2023/03/05 01:11:44;;;;;;;5.13;3.63;;;3.90;98.00;;;;;;5053744;28;20477;-68
2023/03/05 01:14:11;;;;;;;9.23;5.00;;;3.80;98.00;;;;;;5054233;28;21008;-68
2023/03/05 01:16:38;;;;;;;7.07;3.73;;;3.80;98.00;;;;;;5054059;28;20543;-68
2023/03/05 01:19:05;;;;;;;14.07;4.23;;;3.80;98.00;;;;;;5054259;28;21122;-67
2023/03/05 01:21:34;;;;;;;16.40;4.83;;;3.80;98.00;;;;;;5054071;28;20470;-68
2023/03/05 01:24:01;;;;;;;8.23;4.07;;;3.90;98.00;;;;;;5053877;28;21097;-68
2023/03/05 01:26:31;;;;;;;8.70;3.90;;;3.90;98.00;;;;;;5053978;28;20944;-68
2023/03/05 01:28:58;;;;;;;8.87;5.23;;;3.80;98.00;;;;;;5053835;28;20549;-68
2023/03/05 01:31:25;;;;;;;6.00;3.93;;;3.70;98.00;;;;;;5053904;28;20469;-67
2023/03/05 01:33:52;;;;;;;13.00;3.80;;;3.80;98.00;;;;;;5054021;28;20465;-68
2023/03/05 01:36:20;;;;;;;6.83;4.73;;;3.70;98.00;;;;;;5053661;28;20461;-68
2023/03/05 01:38:48;;;;;;;5.90;3.50;;;3.80;98.00;;;;;;5053822;28;20453;-68
2023/03/05 01:41:16;;;;;;;10.23;4.27;;;3.80;98.00;;;;;;5053841;28;20465;-68
2023/03/05 01:43:59;;;;;;;6.00;3.43;;;3.80;98.00;;;;;;5053795;28;20469;-68
2023/03/05 01:46:29;;;;;;;11.27;5.70;;;3.90;98.00;;;;;;5053501;28;20985;-68
2023/03/05 01:49:01;;;;;;;11.70;5.20;;;3.90;98.00;;;;;;5053704;28;21011;-68
2023/03/05 01:51:32;;;;;;;12.00;5.73;;;3.90;98.00;;;;;;5053700;28;20460;-67
2023/03/05 01:54:02;;;;;;;9.90;5.60;;;3.90;98.00;;;;;;5036121;28;20465;-67
2023/03/05 01:56:30;;;;;;;7.00;4.20;;;3.80;98.00;;;;;;5051375;28;20460;-67
2023/03/05 01:59:03;;;;;;;5.80;3.83;;;3.80;98.00;;;;;;5053569;28;20869;-68
2023/03/05 02:01:37;;;;;;;7.10;4.00;;;3.80;98.00;;;;;;5053935;28;20488;-68
2023/03/05 02:04:04;;;;;;;8.77;4.30;;;3.70;98.00;;;;;;5054129;28;20861;-68
2023/03/05 02:06:31;;;;;;;12.37;4.83;;;3.60;98.00;;;;;;5053573;28;20865;-68
2023/03/05 02:08:59;;;;;;;9.40;4.10;;;3.60;98.00;;;;;;5053851;28;20581;-68
2023/03/05 02:11:28;;;;;;;11.10;5.37;;;3.60;98.00;;;;;;5052708;28;20958;-68
2023/03/05 02:13:55;;;;;;;10.93;4.97;;;3.60;98.00;;;;;;5036205;28;21018;-68
2023/03/05 02:16:24;;;;;;;9.30;5.17;;;3.50;98.00;;;;;;5053663;28;20468;-68
2023/03/05 02:18:51;;;;;;;7.60;4.60;;;3.50;98.00;;;;;;5053804;28;20465;-68
2023/03/05 02:21:35;;;;;;;16.13;4.63;;;3.50;98.00;;;;;;5053505;28;20935;-68
2023/03/05 02:24:02;;;;;;;6.60;4.13;;;3.60;98.00;;;;;;5053631;28;20465;-68
2023/03/05 02:26:29;;;;;;;8.90;5.00;;;3.40;98.00;;;;;;5053556;28;20934;-68
2023/03/05 02:28:59;;;;;;;9.80;5.20;;;3.40;98.00;;;;;;5053548;28;20483;-68
2023/03/05 02:31:27;;;;;;;10.80;4.87;;;3.40;98.00;;;;;;5053595;28;20468;-68
2023/03/05 02:33:55;;;;;;;11.27;4.80;;;3.30;98.00;;;;;;5053784;28;20457;-67
2023/03/05 02:36:23;;;;;;;8.33;4.17;;;3.30;98.00;;;;;;5053652;28;20503;-68
2023/03/05 02:38:55;;;;;;;7.13;4.70;;;3.50;98.00;;;;;;5053568;28;20469;-68
2023/03/05 02:41:23;;;;;;;11.57;5.37;;;3.60;98.00;;;;;;5053721;28;20511;-68
2023/03/05 02:43:50;;;;;;;11.93;5.80;;;3.60;98.00;;;;;;5053494;28;20468;-68
2023/03/05 02:46:17;;;;;;;7.27;4.10;;;3.40;98.00;;;;;;5053175;28;20464;-68
2023/03/05 02:48:44;;;;;;;10.43;5.10;;;3.40;98.00;;;;;;5053199;28;20587;-68
2023/03/05 02:51:12;;;;;;;10.97;4.87;;;3.40;98.00;;;;;;5053284;28;20501;-68
2023/03/05 02:53:39;;;;;;;6.77;4.23;;;3.40;98.00;;;;;;5052845;28;20451;-68
2023/03/05 02:56:07;;;;;;;7.23;4.60;;;3.30;98.00;;;;;;5053249;28;20455;-68
2023/03/05 02:58:34;;;;;;;7.90;4.03;;;3.40;98.00;;;;;;5052994;28;20464;-67
2023/03/05 03:01:01;;;;;;;6.70;4.80;;;3.40;98.00;;;;;;5052959;28;20448;-68
2023/03/05 03:03:28;;;;;;;8.97;5.20;;;3.40;98.00;;;;;;5052733;28;20528;-68
2023/03/05 03:05:55;;;;;;;9.37;5.43;;;3.40;98.00;;;;;;5052867;28;20461;-67
2023/03/05 03:08:23;;;;;;;28.70;5.53;;;3.40;98.00;;;;;;5052779;28;20904;-68
2023/03/05 03:10:50;;;;;;;9.90;4.67;;;3.40;98.00;;;;;;5052824;28;20463;-68
2023/03/05 03:13:26;;;;;;;10.00;5.90;;;3.60;98.00;;;;;;5052939;28;20470;-68
2023/03/05 03:16:02;;;;;;;9.47;5.90;;;3.60;98.00;;;;;;5052781;28;20464;-68
2023/03/05 03:18:29;;;;;;;10.43;4.03;;;3.60;98.00;;;;;;5052563;28;20530;-68
2023/03/05 03:20:56;;;;;;;5.93;3.63;;;3.70;98.00;;;;;;5052525;28;20464;-68
2023/03/05 03:23:23;;;;;;;28.37;6.80;;;3.90;98.00;;;;;;5052352;28;20959;-67
2023/03/05 03:25:50;;;;;;;13.27;6.53;;;3.90;98.00;;;;;;5052893;28;20465;-68
2023/03/05 03:28:19;;;;;;;12.50;5.20;;;3.90;98.00;;;;;;5052580;28;20485;-68
2023/03/05 03:30:46;;;;;;;14.10;4.70;;;3.80;98.00;;;;;;5052807;28;21079;-68
2023/03/05 03:33:13;;;;;;;8.53;5.20;;;3.70;98.00;;;;;;5052657;28;20536;-68
2023/03/05 03:35:41;;;;;;;11.67;5.33;;;3.60;98.00;;;;;;5052437;28;20822;-68
2023/03/05 03:38:08;;;;;;;12.10;5.10;;;3.50;98.00;;;;;;5051161;28;20966;-68
2023/03/05 03:40:36;;;;;;;10.13;4.53;;;3.50;98.00;;;;;;5051647;28;20458;-68
2023/03/05 03:43:03;;;;;;;11.70;5.07;;;3.40;98.00;;;;;;5051580;28;20452;-68
2023/03/05 03:45:31;;;;;;;11.30;4.00;;;3.40;98.00;;;;;;5051785;28;20544;-67
2023/03/05 03:47:59;;;;;;;9.50;4.73;;;3.50;98.00;;;;;;5052618;28;20863;-68
2023/03/05 03:50:26;;;;;;;10.00;5.57;;;3.60;98.00;;;;;;5051552;28;20456;-68
2023/03/05 03:52:55;;;;;;;9.80;4.40;;;3.60;98.00;;;;;;5052074;28;20460;-68
2023/03/05 03:55:22;;;;;;;5.97;3.70;;;3.70;98.00;;;;;;5051853;28;20472;-68
2023/03/05 03:57:49;;;;;;;5.80;4.00;;;3.70;98.00;;;;;;5051731;28;20453;-68
2023/03/05 04:00:17;;;;;;;8.30;4.40;;;3.80;98.00;;;;;;5052005;28;20457;-68
2023/03/05 04:02:46;;;;;;;12.10;5.60;;;3.90;98.00;;;;;;5051747;28;20465;-68
2023/03/05 04:05:13;;;;;;;11.90;4.93;;;3.90;98.00;;;;;;5051918;28;20775;-68
2023/03/05 04:07:40;;;;;;;13.57;4.53;;;4.00;98.00;;;;;;5051596;28;20507;-68
2023/03/05 04:10:11;;;;;;;8.83;4.67;;;3.90;98.00;;;;;;5051803;28;20901;-68
2023/03/05 04:12:38;;;;;;;8.90;4.43;;;3.70;98.00;;;;;;5051784;28;20450;-68
2023/03/05 04:15:07;;;;;;;6.60;4.10;;;3.70;98.00;;;;;;5051800;28;20494;-67
2023/03/05 04:17:34;;;;;;;11.43;5.97;;;3.60;98.00;;;;;;5051705;28;20455;-68
2023/03/05 04:20:04;;;;;;;14.23;5.80;;;3.70;98.00;;;;;;5051781;28;21113;-67
2023/03/05 04:22:31;;;;;;;7.13;4.23;;;3.60;98.00;;;;;;5051676;28;20457;-68
2023/03/05 04:25:02;;;;;;;10.33;5.50;;;3.60;98.00;;;;;;5051919;28;20461;-68
2023/03/05 04:27:29;;;;;;;12.33;4.47;;;3.50;98.00;;;;;;5051676;28;20543;-68
2023/03/05 04:29:56;;;;;;;18.90;5.23;;;3.50;98.00;;;;;;5051673;28;20545;-68
2023/03/05 04:32:28;;;;;;;10.60;4.17;;;3.50;98.00;;;;;;5051408;28;20453;-68
2023/03/05 04:34:56;;;;;;;26.43;5.57;;;3.40;98.00;;;;;;5054843;28;20457;-68
2023/03/05 04:37:27;;;;;;;10.43;5.10;;;3.40;98.00;;;;;;5055778;28;20461;-68
2023/03/05 04:39:56;;;;;;;8.57;4.40;;;3.40;98.00;;;;;;5055978;28;20541;-68
2023/03/05 04:42:23;;;;;;;7.10;4.23;;;3.40;98.00;;;;;;5055817;28;20543;-68
2023/03/05 04:44:51;;;;;;;12.20;5.40;;;3.50;98.00;;;;;;5055667;28;20460;-68
2023/03/05 04:47:19;;;;;;;12.90;5.20;;;3.60;98.00;;;;;;5055488;28;20468;-67
2023/03/05 04:49:47;;;;;;;12.97;6.80;;;3.70;98.00;;;;;;5055294;28;20492;-68
2023/03/05 04:52:15;;;;;;;8.03;5.17;;;3.80;98.00;;;;;;5037658;28;20472;-68
2023/03/05 04:54:44;;;;;;;8.67;5.43;;;3.90;98.00;;;;;;5055261;28;20469;-68
2023/03/05 04:57:12;;;;;;;9.30;4.30;;;3.90;98.00;;;;;;5055150;28;20868;-68
2023/03/05 04:59:39;;;;;;;10.40;5.10;;;4.00;98.00;;;;;;5055570;28;20464;-68
2023/03/05 05:02:06;;;;;;;9.73;5.27;;;3.80;98.00;;;;;;5055046;28;20453;-68
2023/03/05 05:04:34;;;;;;;11.87;5.57;;;3.80;98.00;;;;;;5055163;28;20518;-68
2023/03/05 05:07:02;;;;;;;8.67;5.03;;;3.70;98.00;;;;;;5055123;28;20466;-67
2023/03/05 05:09:29;;;;;;;5.60;3.67;;;3.60;98.00;;;;;;5055009;28;21179;-68
2023/03/05 05:11:58;;;;;;;12.60;5.80;;;3.60;98.00;;;;;;5055177;28;20465;-68
2023/03/05 05:14:25;;;;;;;8.33;4.37;;;3.60;98.00;;;;;;5054948;28;20460;-68
2023/03/05 05:16:52;;;;;;;9.07;4.63;;;3.60;98.00;;;;;;5055198;28;20460;-68
2023/03/05 05:19:19;;;;;;;12.00;5.63;;;3.70;98.00;;;;;;5054903;28;20954;-68
2023/03/05 05:21:46;;;;;;;5.53;3.70;;;3.60;98.00;;;;;;5054146;28;20517;-68
2023/03/05 05:24:13;;;;;;;8.13;5.00;;;3.50;98.00;;;;;;5054939;28;20866;-68
2023/03/05 05:26:40;;;;;;;11.63;5.57;;;3.40;98.00;;;;;;5054603;28;20462;-68
2023/03/05 05:29:11;;;;;;;6.33;4.13;;;3.40;98.00;;;;;;5054832;28;20481;-68
2023/03/05 05:31:38;;;;;;;8.17;5.10;;;3.40;98.00;;;;;;5054580;28;20510;-67
2023/03/05 05:34:05;;;;;;;8.33;5.03;;;3.40;98.00;;;;;;5054768;28;20547;-68
2023/03/05 05:36:32;;;;;;;21.73;6.70;;;3.60;98.00;;;;;;5054301;28;20928;-68
2023/03/05 05:38:59;;;;;;;10.70;5.93;;;3.60;98.00;;;;;;5054848;28;20476;-68
2023/03/05 05:41:26;;;;;;;10.13;4.67;;;3.60;98.00;;;;;;5054864;28;20472;-68
2023/03/05 05:43:54;;;;;;;16.87;6.63;;;3.60;98.00;;;;;;5054554;28;20499;-68
2023/03/05 05:46:23;;;;;;;11.90;4.67;;;3.60;98.00;;;;;;5053239;28;20465;-68
2023/03/05 05:48:51;;;;;;;11.73;5.13;;;3.60;98.00;;;;;;5054111;28;20485;-68
2023/03/05 05:51:20;;;;;;;9.13;4.90;;;3.50;98.00;;;;;;5054616;28;20842;-67
2023/03/05 05:53:48;;;;;;;8.50;5.00;;;3.50;98.00;;;;;;5036711;28;21152;-68
2023/03/05 05:56:16;;;;;;;9.87;4.73;;;3.50;98.00;;;;;;5054236;28;20457;-68
2023/03/05 05:58:46;;;;;;;15.80;4.77;;;3.50;98.00;;;;;;5054097;28;20483;-68
2023/03/05 06:01:14;;;;;;;8.20;5.30;;;3.50;98.00;;;;;;5054239;28;20822;-67
2023/03/05 06:03:44;;;;;;;10.00;5.17;;;3.60;98.00;;;;;;5054300;28;20510;-68
2023/03/05 06:06:12;;;;;;;14.17;5.83;;;3.60;98.00;;;;;;5054016;28;20568;-67
2023/03/05 06:08:40;;;;;;;10.73;5.70;;;3.60;98.00;;;;;;5053957;28;20511;-68
2023/03/05 06:11:08;;;;;;;17.30;6.27;;;3.50;98.00;;;;;;5053972;28;20464;-68
2023/03/05 06:13:36;;;;;;;10.97;4.93;;;3.50;98.00;;;;;;5053782;28;20460;-68
2023/03/05 06:16:06;;;;;;;15.90;5.47;;;3.50;98.00;;;;;;5036244;28;20468;-68
2023/03/05 06:18:34;;;;;;;8.80;5.13;;;3.60;98.00;;;;;;5053716;28;20530;-68
2023/03/05 06:21:04;;;;;;;13.00;5.27;;;3.60;98.00;;;;;;5053877;28;20464;-68
2023/03/05 06:23:32;;;;;;;12.20;6.67;;;3.60;98.00;;;;;;5053683;28;20468;-68
2023/03/05 06:26:02;;;;;;;14.43;6.47;;;3.60;98.00;;;;;;5053758;28;20452;-68
2023/03/05 06:28:31;;;;;;;12.60;4.83;;;3.60;98.00;;;;;;5053771;28;20814;-68
2023/03/05 06:31:02;;;;;;;10.50;5.57;;;3.80;98.00;;;;;;5053622;28;20460;-67
2023/03/05 06:33:29;;;;;;;18.70;5.80;;;3.80;98.00;;;;;;5053578;28;20460;-68
2023/03/05 06:35:57;;;;;;;8.37;5.47;;;3.70;98.00;;;;;;5053431;28;21011;-68
2023/03/05 06:38:26;;;;;;;6.83;3.63;;;3.70;98.00;;;;;;5053537;28;20460;-68
2023/03/05 06:40:54;;;;;;;7.50;4.73;;;3.60;98.00;;;;;;5036017;28;20663;-68
2023/03/05 06:43:21;;;;;;;9.33;5.50;;;3.80;98.00;;;;;;5053248;28;20452;-68
2023/03/05 06:45:48;;;;;;;10.37;4.47;;;3.80;98.00;;;;;;5053043;28;20484;-67
2023/03/05 06:48:16;;;;;;;6.77;4.07;;;3.90;98.00;;;;;;5053117;28;20454;-67
2023/03/05 06:50:43;;;;;;;17.23;3.70;;;4.00;98.00;;;;;;5053046;28;20488;-68
2023/03/05 06:53:10;;;;;;;8.27;4.57;;;4.00;98.00;;;;;;5052800;28;20471;-68
2023/03/05 06:55:39;;;;;;;11.53;5.20;;;3.90;98.00;;;;;;5053177;28;20944;-68
2023/03/05 06:58:08;;;;;;;12.07;5.57;;;4.00;98.00;;;;;;5052822;28;20453;-68
2023/03/05 07:00:35;;;;;;;10.23;4.50;;;4.00;98.00;;;;;;5052911;28;20552;-67
2023/03/05 07:03:02;;;;;;;8.23;4.37;;;3.90;98.00;;;;;;5035293;28;20479;-63
2023/03/05 07:05:32;;;;;;;10.60;4.90;;;3.80;98.00;;;;;;5052840;28;20460;-63
2023/03/05 07:07:59;;;;;;;13.20;5.93;;;4.00;98.00;;;;;;5052953;28;20935;-63
2023/03/05 07:10:26;;;;;;;12.40;6.60;;;3.90;98.00;;;;;;5052893;28;20493;-63
2023/03/05 07:12:55;;;;;;;7.90;3.80;;;3.90;98.00;;;;;;5035342;28;20950;-63
2023/03/05 07:15:22;;;;;;;17.20;7.67;;;3.90;98.00;;;;;;5035198;28;20463;-63
2023/03/05 07:17:49;;;;;;;11.80;6.13;;;4.00;98.00;;;;;;5052610;28;20932;-63
2023/03/05 07:20:17;;;;;;;10.90;4.97;;;3.90;98.00;;;;;;5052425;28;20460;-63
2023/03/05 07:22:44;;;;;;;9.90;5.47;;;4.00;98.00;;;;;;5052611;28;20515;-63
2023/03/05 07:25:11;;;;;;;16.00;6.30;;;4.00;98.00;;;;;;5052656;28;21122;-63
2023/03/05 07:27:39;;;;;;;11.90;5.87;;;4.00;98.00;;;;;;5052473;28;20465;-63
2023/03/05 07:30:11;;;;;;;12.00;5.30;;;4.10;98.00;;;;;;5052399;28;20998;-63
2023/03/05 07:32:38;;;;;;;7.73;4.43;;;4.00;98.00;;;;;;5052309;28;20459;-63
2023/03/05 07:35:06;;;;;;;10.70;5.60;;;4.00;98.00;;;;;;5034573;28;20486;-64
2023/03/05 07:37:33;;;;;;;10.10;4.97;;;4.00;98.00;;;;;;5052508;28;20449;-63
2023/03/05 07:40:00;;;;;;;12.93;6.33;;;4.10;98.00;;;;;;5052744;28;20453;-63
2023/03/05 07:42:27;;;;;;;9.70;4.20;;;4.20;98.00;;;;;;5052430;28;20526;-63
2023/03/05 07:44:55;;;;;;;14.60;6.10;;;4.30;98.00;;;;;;5052010;28;20926;-63
2023/03/05 07:47:25;;;;;;;13.03;5.80;;;4.30;98.00;;;;;;5052081;28;20479;-63
2023/03/05 07:49:52;;;;;;;9.63;4.67;;;4.30;98.00;;;;;;5052032;28;20486;-63
2023/03/05 07:52:19;;;;;;;13.27;6.40;;;4.30;98.00;;;;;;5052065;28;20450;-63
2023/03/05 07:54:46;;;;;;;12.67;6.03;;;4.40;98.00;;;;;;5052151;28;20457;-63
2023/03/05 07:57:14;;;;;;;12.47;6.63;;;4.40;98.00;;;;;;5051913;28;20970;-63
2023/03/05 07:59:43;;;;;;;12.00;5.10;;;4.50;98.00;;;;;;5051937;28;20460;-63
2023/03/05 08:02:12;;;;;;;6.03;4.70;;;4.40;98.00;;;;;;5052103;28;20945;-63
2023/03/05 08:04:41;;;;;;;8.60;4.70;;;4.50;98.00;;;;;;5034340;28;20457;-63
2023/03/05 08:07:09;;;;;;;10.13;5.60;;;4.60;98.00;;;;;;5051893;28;20466;-64
2023/03/05 08:09:36;;;;;;;20.23;4.53;;;4.80;98.00;;;;;;5033378;28;20477;-63
2023/03/05 08:12:03;;;;;;;10.20;4.60;;;4.90;98.00;;;;;;5052000;28;21113;-63
2023/03/05 08:14:30;;;;;;;7.23;4.37;;;4.80;98.00;;;;;;5051894;28;20463;-63
2023/03/05 08:16:57;;;;;;;10.97;5.20;;;4.90;98.00;;;;;;5034300;28;20509;-63
2023/03/05 08:19:25;;;;;;;14.10;6.27;;;5.00;98.00;;;;;;5034286;28;20464;-63
2023/03/05 08:21:53;;;;;;;13.60;6.40;;;4.80;98.00;;;;;;5052122;28;20479;-63
2023/03/05 08:24:22;;;;;;;8.60;4.00;;;4.90;98.00;;;;;;5052157;28;20464;-63
2023/03/05 08:26:49;;;;;;;10.60;5.27;;;4.70;98.00;;;;;;5051818;28;21037;-63
2023/03/05 08:29:16;;;;;;;8.30;4.63;;;4.50;98.00;;;;;;5051770;28;20457;-63
2023/03/05 08:31:46;;;;;;;12.03;4.60;;;4.50;98.00;;;;;;5051780;28;20461;-63
2023/03/05 08:34:13;;;;;;;8.63;4.47;;;4.40;98.00;;;;;;5051877;28;20500;-63
2023/03/05 08:36:40;;;;;;;7.20;4.80;;;4.40;98.00;;;;;;5051868;28;20468;-63
2023/03/05 08:39:09;;;;;;;12.80;4.70;;;4.50;98.00;;;;;;5051870;28;21088;-63
2023/03/05 08:41:36;;;;;;;6.37;4.10;;;4.60;98.00;;;;;;5051542;28;20801;-63
2023/03/05 08:44:04;;;;;;;16.73;4.97;;;4.80;98.00;;;;;;5051157;28;20463;-63
2023/03/05 08:46:31;;;;;;;9.00;5.23;;;4.80;98.00;;;;;;5033353;28;20457;-63
2023/03/05 08:48:59;;;;;;;5.40;3.30;;;4.90;98.00;;;;;;5050929;28;20458;-63
2023/03/05 08:51:27;;;;;;;7.80;4.30;;;4.90;98.00;;;;;;5050683;28;21032;-63
2023/03/05 08:53:58;;;;;;;8.23;3.97;;;5.10;98.00;;;;;;5051569;28;20450;-63
2023/03/05 08:56:30;;;;;;;13.60;5.50;;;5.10;98.00;;;;;;5051280;28;20461;-64
2023/03/05 08:58:58;;;;;;;5.17;3.30;;;5.30;98.00;;;;;;5031587;28;20470;-63
2023/03/05 09:01:26;;;;;;;6.90;4.00;;;5.50;98.00;;;;;;5031765;28;20818;-63
2023/03/05 09:03:53;;;;;;;10.00;4.17;;;5.50;98.00;;;;;;5031421;28;20458;-63
2023/03/05 09:06:20;;;;;;;8.97;4.90;;;5.40;98.00;;;;;;5048795;28;20462;-63
2023/03/05 09:08:50;;;;;;;16.23;5.17;;;5.40;98.00;;;;;;5046971;28;20463;-63
2023/03/05 09:11:18;;;;;;;11.30;5.83;;;5.40;98.00;;;;;;5032330;28;20489;-63
2023/03/05 09:13:48;;;;;;;9.00;3.70;;;5.40;98.00;;;;;;5050581;28;21092;-63
2023/03/05 09:16:18;;;;;;;11.10;6.07;;;5.40;98.00;;;;;;5011761;28;20459;-63
2023/03/05 09:18:45;;;;;;;8.73;4.37;;;5.30;98.00;;;;;;5011466;28;20458;-63
2023/03/05 09:21:14;;;;;;;4.23;2.90;;;5.50;98.00;;;;;;5014698;28;20528;-63
2023/03/05 09:23:42;;;;;;;9.13;3.40;;;5.40;98.00;;;;;;5014999;28;20947;-63
2023/03/05 09:26:11;;;;;;;10.57;5.03;;;5.10;98.00;;;;;;5015213;28;20468;-63
2023/03/05 09:28:39;;;;;;;9.27;4.60;;;5.10;98.00;;;;;;5013981;28;20981;-63
2023/03/05 09:31:10;;;;;;;8.53;3.83;;;5.30;98.00;;;;;;5014935;28;20484;-64
2023/03/05 09:33:37;;;;;;;9.37;4.23;;;5.30;98.00;;;;;;5050461;28;20462;-63
2023/03/05 09:36:07;;;;;;;10.30;4.53;;;5.20;98.00;;;;;;5054786;28;20513;-63
2023/03/05 09:38:36;;;;;;;16.47;4.23;;;5.40;98.00;;;;;;5033284;28;20469;-63
2023/03/05 09:41:06;;;;;;;8.33;4.50;;;5.50;98.00;;;;;;5034454;28;20947;-63
2023/03/05 09:43:45;;;;;;;15.27;5.50;;;5.50;98.00;;;;;;5033368;28;20468;-63
2023/03/05 09:46:30;;;;;;;7.70;4.80;;;5.40;98.00;;;;;;5034167;28;20557;-63
2023/03/05 09:49:06;;;;;;;11.70;3.90;;;5.50;98.00;;;;;;5033861;28;20461;-63
2023/03/05 09:51:39;;;;;;;12.83;3.83;;;5.60;98.00;;;;;;5033490;28;20491;-63
2023/03/05 09:54:13;;;;;;;6.90;4.13;;;5.40;98.00;;;;;;5045473;28;20462;-63
2023/03/05 09:56:42;;;;;;;8.03;4.03;;;5.40;98.00;;;;;;5053285;28;20863;-63
2023/03/05 09:59:23;;;;;;;9.20;4.00;;;5.50;98.00;;;;;;5053365;28;20465;-63
2023/03/05 10:01:53;;;;;;;6.20;3.27;;;5.60;98.00;;;;;;5053321;28;20467;-63
2023/03/05 10:04:26;;;;;;;5.77;3.53;;;5.50;98.00;;;;;;5053391;28;20468;-63
2023/03/05 10:06:56;;;;;;;8.33;4.43;;;5.50;98.00;;;;;;5052623;28;20991;-63
2023/03/05 10:09:41;;;;;;;5.23;3.50;;;5.60;98.00;;;;;;5053717;28;20465;-63
2023/03/05 10:12:18;;;;;;;6.23;3.17;;;5.70;98.00;;;;;;5036349;28;20469;-63
2023/03/05 10:14:46;;;;;;;4.57;3.13;;;5.60;98.00;;;;;;5053130;28;20460;-63
2023/03/05 10:17:46;;;;;;;7.10;3.70;;;5.70;98.00;;;;;;5052641;28;20523;-63
2023/03/05 10:20:35;;;;;;;6.00;3.20;;;5.70;98.00;;;;;;5053294;28;20465;-63
2023/03/05 10:23:31;;;;;;;3.40;2.73;;;5.60;98.00;;;;;;5035018;28;20533;-63
2023/03/05 10:26:16;;;;;;;8.77;3.73;;;5.50;98.00;;;;;;5036713;28;20484;-63
2023/03/05 10:28:49;;;;;;;7.50;3.93;;;5.40;98.00;;;;;;5032575;28;20464;-63
2023/03/05 10:31:38;;;;;;;7.00;3.67;;;5.30;98.00;;;;;;5032619;28;20487;-63
2023/03/05 10:34:21;;;;;;;4.00;2.43;;;5.40;98.00;;;;;;5032346;28;20461;-63
2023/03/05 10:37:11;;;;;;;9.33;2.93;;;5.40;98.00;;;;;;5032873;28;20455;-63
2023/03/05 10:39:51;;;;;;;8.80;3.10;;;5.50;98.00;;;;;;5032859;28;21032;-60
2023/03/05 10:42:36;;;;;;;5.33;2.73;;;5.70;98.00;;;;;;5038731;28;21291;-64
2023/03/05 10:45:14;;;;;;;4.43;2.73;;;5.70;98.00;;;;;;5053351;28;20457;-64
2023/03/05 10:47:46;;;;;;;5.00;3.03;;;5.70;98.00;;;;;;5053125;28;20480;-62
2023/03/05 10:50:19;;;;;;;4.13;2.70;;;5.80;98.00;;;;;;5053130;28;20923;-63
2023/03/05 10:52:50;;;;;;;8.70;3.90;;;6.00;98.00;;;;;;5052314;28;20525;-63
2023/03/05 10:55:23;;;;;;;4.67;2.93;;;5.90;98.00;;;;;;5053082;28;20460;-63
2023/03/05 10:57:50;;;;;;;3.40;2.40;;;5.60;98.00;;;;;;5052828;28;20866;-62
2023/03/05 11:00:20;;;;;;;11.93;3.30;;;5.50;98.00;;;;;;5053059;28;21095;-64
2023/03/05 11:02:57;;;;;;;7.70;2.97;;;5.60;98.00;;;;;;5047956;28;20515;-63
2023/03/05 11:05:40;;;;;;;6.70;3.63;;;5.70;98.00;;;;;;5053017;28;20811;-63
2023/03/05 11:08:25;;;;;;;7.60;4.30;;;5.90;98.00;;;;;;5052954;28;20488;-63
2023/03/05 11:11:13;;;;;;;4.77;3.13;;;5.90;98.00;;;;;;5052533;28;20489;-63
2023/03/05 11:13:52;;;;;;;7.30;3.10;;;5.90;98.00;;;;;;5052681;28;20469;-62
2023/03/05 11:16:22;;;;;;;5.00;2.40;;;5.60;98.00;;;;;;5052227;28;20546;-63
2023/03/05 11:18:49;;;;;;;7.83;3.80;;;5.70;98.00;;;;;;5051927;28;20469;-63
2023/03/05 11:21:26;;;;;;;5.30;3.00;;;5.80;98.00;;;;;;5052654;28;20457;-63
2023/03/05 11:24:13;;;;;;;4.13;2.70;;;5.90;98.00;;;;;;5052584;28;20450;-63
2023/03/05 11:26:52;;;;;;;11.50;2.70;;;6.10;98.00;;;;;;5052511;28;20470;-63
2023/03/05 11:29:22;;;;;;;5.10;2.73;;;6.30;98.00;;;;;;5052314;28;20461;-63
2023/03/05 11:31:50;;;;;;;8.97;4.03;;;6.40;98.00;;;;;;5052286;28;20486;-63
2023/03/05 11:34:33;;;;;;;6.30;2.87;;;6.30;98.00;;;;;;5052385;28;20454;-63
2023/03/05 11:37:05;;;;;;;5.73;2.83;;;6.30;98.00;;;;;;5052572;28;20530;-63
2023/03/05 11:39:39;;;;;;;4.87;3.10;;;6.40;98.00;;;;;;5052236;28;20465;-63
2023/03/05 11:42:11;;;;;;;5.20;3.00;;;6.40;98.00;;;;;;5051932;28;20456;-63
2023/03/05 11:44:45;;;;;;;5.20;3.23;;;6.40;98.00;;;;;;5051237;28;20457;-63
2023/03/05 11:47:20;;;;;;;4.97;2.77;;;6.50;98.00;;;;;;5051900;28;20515;-63
2023/03/05 11:49:50;;;;;;;11.27;3.93;;;6.40;98.00;;;;;;5034190;28;20464;-63
2023/03/05 11:52:25;;;;;;;8.70;3.37;;;6.30;98.00;;;;;;5052145;28;20492;-63
2023/03/05 11:55:03;;;;;;;11.43;3.17;;;6.30;98.00;;;;;;5034562;28;20464;-63
2023/03/05 11:57:34;;;;;;;3.97;3.00;;;6.30;98.00;;;;;;5052092;28;20466;-63
2023/03/05 12:00:10;;;;;;;8.07;4.13;;;6.40;98.00;;;;;;5052006;28;20471;-63
2023/03/05 12:02:37;;;;;;;6.40;3.70;;;6.40;98.00;;;;;;5051727;28;20459;-63
2023/03/05 12:05:07;;;;;;;10.73;3.10;;;6.20;98.00;;;;;;5034173;28;20472;-63
2023/03/05 12:07:41;;;;;;;4.97;3.50;;;6.00;98.00;;;;;;5051695;28;20466;-63
2023/03/05 12:10:16;;;;;;;6.40;2.97;;;5.90;98.00;;;;;;5051799;28;20455;-63
2023/03/05 12:12:49;;;;;;;4.40;2.70;;;5.90;98.00;;;;;;5051769;28;20465;-63
2023/03/05 12:15:45;;;;;;;8.97;2.83;;;5.70;98.00;;;;;;5050809;28;20458;-63
2023/03/05 12:18:30;;;;;;;6.37;3.10;;;5.80;98.00;;;;;;5031486;28;20553;-63
2023/03/05 12:21:04;;;;;;;7.97;4.40;;;5.90;98.00;;;;;;5050438;28;20518;-63
2023/03/05 12:23:46;;;;;;;6.17;3.17;;;6.10;98.00;;;;;;5050730;28;20460;-63
2023/03/05 12:26:13;;;;;;;4.40;3.50;;;5.90;98.00;;;;;;5051041;28;20768;-63
2023/03/05 12:29:00;;;;;;;4.87;3.03;;;5.90;98.00;;;;;;5050796;28;20523;-63
2023/03/05 12:31:36;;;;;;;9.23;3.57;;;6.00;98.00;;;;;;5050864;28;20483;-63
2023/03/05 12:34:45;;;;;;;9.33;3.63;;;5.90;98.00;;;;;;5050737;28;20498;-63
2023/03/05 12:37:14;;;;;;;5.30;2.60;;;5.90;98.00;;;;;;5050891;28;20864;-63
2023/03/05 12:39:49;;;;;;;6.10;3.93;;;6.00;98.00;;;;;;5051200;28;20480;-63
2023/03/05 12:42:46;;;;;;;5.57;2.80;;;6.20;98.00;;;;;;5050715;28;20460;-63
2023/03/05 12:45:41;;;;;;;6.93;4.00;;;6.30;98.00;;;;;;5050821;28;20490;-63
2023/03/05 12:48:43;;;;;;;4.30;3.20;;;6.20;98.00;;;;;;5050678;28;20859;-63
2023/03/05 12:51:29;;;;;;;6.87;3.07;;;6.10;98.00;;;;;;5050551;28;20482;-63
2023/03/05 12:53:57;;;;;;;4.70;3.00;;;6.00;98.00;;;;;;5033032;28;20467;-63
2023/03/05 12:56:31;;;;;;;10.10;3.73;;;6.20;98.00;;;;;;5036425;28;20509;-63
2023/03/05 12:59:01;;;;;;;8.00;3.10;;;6.30;98.00;;;;;;5054487;28;20484;-63
2023/03/05 13:01:41;;;;;;;6.77;3.23;;;6.30;98.00;;;;;;5036710;28;20507;-62
2023/03/05 13:04:15;;;;;;;9.00;4.07;;;6.20;98.00;;;;;;5054365;28;20795;-63
2023/03/05 13:06:43;;;;;;;7.70;2.90;;;6.20;98.00;;;;;;5054054;28;20456;-63
2023/03/05 13:09:17;;;;;;;6.23;3.57;;;6.30;98.00;;;;;;5054259;28;20467;-63